Time;durP1;ratioP1;P1;durP2;ratioP2;P2;SDS_P1;SDS_P2;PMS_P1;PMS_P2;Temp;Humidity;BMP_temperature;BMP_pressure;BME280_temperature;BME280_humidity;BME280_pressure;Samples;Min_cycle;Max_cycle;Signal;HPM_P1;HPM_P2
2022/09/05 00:02:32;;;;;;;7.28;2.55;;;;;;;;;;5036115;28;20040;-71
2022/09/05 00:05:03;;;;;;;9.45;2.70;;;;;;;;;;5042432;28;20142;-71
2022/09/05 00:07:41;;;;;;;10.00;2.97;;;;;;;;;;5038688;28;20051;-71
2022/09/05 00:10:19;;;;;;;5.35;2.92;;;;;;;;;;5042091;28;20150;-71
2022/09/05 00:12:46;;;;;;;5.45;2.38;;;;;;;;;;5043513;28;20046;-71
2022/09/05 00:15:19;;;;;;;6.07;2.97;;;;;;;;;;5044543;28;20036;-71
2022/09/05 00:17:45;;;;;;;7.32;3.63;;;;;;;;;;5044541;28;20052;-71
2022/09/05 00:20:18;;;;;;;6.35;2.80;;;;;;;;;;5046435;28;20072;-71
2022/09/05 00:22:52;;;;;;;6.18;2.75;;;;;;;;;;5038552;28;20051;-71
2022/09/05 00:25:27;;;;;;;5.20;2.70;;;;;;;;;;5043582;28;20053;-71
2022/09/05 00:28:12;;;;;;;7.13;2.90;;;;;;;;;;5038135;28;20045;-71
2022/09/05 00:30:45;;;;;;;9.52;3.03;;;;;;;;;;5044211;28;20415;-71
2022/09/05 00:33:27;;;;;;;4.85;2.60;;;;;;;;;;5051805;28;21642;-71
2022/09/05 00:36:06;;;;;;;5.57;3.05;;;;;;;;;;5073599;28;20051;-71
2022/09/05 00:38:33;;;;;;;5.65;2.70;;;;;;;;;;5052658;28;20036;-71
2022/09/05 00:41:03;;;;;;;5.45;2.90;;;;;;;;;;5085298;28;20057;-71
2022/09/05 00:43:36;;;;;;;6.03;3.10;;;;;;;;;;5042713;28;20484;-71
2022/09/05 00:46:09;;;;;;;6.22;3.17;;;;;;;;;;5043383;28;20110;-71
2022/09/05 00:48:44;;;;;;;5.97;2.97;;;;;;;;;;5044913;28;20049;-71
2022/09/05 00:51:31;;;;;;;5.90;3.15;;;;;;;;;;5044788;28;20105;-71
2022/09/05 00:54:01;;;;;;;6.95;3.15;;;;;;;;;;5039664;28;20634;-71
2022/09/05 00:56:46;;;;;;;5.40;2.92;;;;;;;;;;5039599;28;20073;-71
2022/09/05 00:59:36;;;;;;;6.47;3.30;;;;;;;;;;5044078;28;20055;-71
2022/09/05 01:02:05;;;;;;;7.72;3.67;;;;;;;;;;5045611;28;20503;-71
2022/09/05 01:04:37;;;;;;;5.22;3.10;;;;;;;;;;5044977;28;20096;-71
2022/09/05 01:07:13;;;;;;;9.27;3.40;;;;;;;;;;5042119;28;20388;-71
2022/09/05 01:09:45;;;;;;;5.95;3.33;;;;;;;;;;5043270;28;20064;-71
2022/09/05 01:12:25;;;;;;;5.05;3.13;;;;;;;;;;5047014;28;20067;-71
2022/09/05 01:15:07;;;;;;;6.15;3.35;;;;;;;;;;5045293;28;20053;-71
2022/09/05 01:17:51;;;;;;;9.30;3.40;;;;;;;;;;5051947;28;20057;-71
2022/09/05 01:20:36;;;;;;;6.53;3.13;;;;;;;;;;5041871;28;20048;-71
2022/09/05 01:23:16;;;;;;;9.90;3.60;;;;;;;;;;5036567;28;20041;-71
2022/09/05 01:25:49;;;;;;;5.60;3.55;;;;;;;;;;5049126;28;20055;-71
2022/09/05 01:28:23;;;;;;;4.97;3.53;;;;;;;;;;5038871;28;20049;-71
2022/09/05 01:30:57;;;;;;;5.45;3.67;;;;;;;;;;5043872;28;20080;-71
2022/09/05 01:33:24;;;;;;;6.70;3.70;;;;;;;;;;5044355;28;20032;-71
2022/09/05 01:35:58;;;;;;;8.40;3.72;;;;;;;;;;5042871;28;20083;-71
2022/09/05 01:41:57;;;;;;;6.47;3.58;;;;;;;;;;5043793;28;20195;-71
2022/09/05 01:44:30;;;;;;;9.18;4.00;;;;;;;;;;5044076;28;20135;-71
2022/09/05 01:46:56;;;;;;;6.30;3.88;;;;;;;;;;5049195;28;20370;-71
2022/09/05 01:49:28;;;;;;;8.35;3.97;;;;;;;;;;5040103;28;20069;-71
2022/09/05 01:51:54;;;;;;;11.35;4.35;;;;;;;;;;5050527;28;20523;-71
2022/09/05 01:54:21;;;;;;;5.57;3.92;;;;;;;;;;5043872;28;20158;-71
2022/09/05 01:56:53;;;;;;;10.25;3.97;;;;;;;;;;5045274;28;20579;-71
2022/09/05 01:59:25;;;;;;;8.07;4.18;;;;;;;;;;5044910;28;20507;-71
2022/09/05 02:02:12;;;;;;;7.38;3.83;;;;;;;;;;5035720;28;20044;-71
2022/09/05 02:04:49;;;;;;;7.97;4.05;;;;;;;;;;5053204;28;21893;-71
2022/09/05 02:07:38;;;;;;;7.55;4.20;;;;;;;;;;5058280;28;20047;-71
2022/09/05 02:10:11;;;;;;;6.05;3.78;;;;;;;;;;5035460;28;21194;-71
2022/09/05 02:12:37;;;;;;;;;;;;;;;;;;5053427;28;20033;-71
2022/09/05 02:15:06;;;;;;;9.55;4.10;;;;;;;;;;5074900;28;20327;-71
2022/09/05 02:17:41;;;;;;;9.07;4.00;;;;;;;;;;5047867;28;20049;-71
2022/09/05 02:20:18;;;;;;;7.80;4.22;;;;;;;;;;5078955;28;20049;-70
2022/09/05 02:22:48;;;;;;;7.60;4.57;;;;;;;;;;5047698;28;20045;-71
2022/09/05 02:25:17;;;;;;;8.80;4.65;;;;;;;;;;5047668;28;20463;-71
2022/09/05 02:27:50;;;;;;;8.70;4.30;;;;;;;;;;5048318;28;20432;-71
2022/09/05 02:30:18;;;;;;;7.15;4.57;;;;;;;;;;5050803;28;20056;-71
2022/09/05 02:32:51;;;;;;;8.60;4.82;;;;;;;;;;5046508;28;20044;-71
2022/09/05 02:35:20;;;;;;;13.73;5.18;;;;;;;;;;5049274;28;20557;-71
2022/09/05 02:37:46;;;;;;;10.27;4.50;;;;;;;;;;5049880;28;20044;-71
2022/09/05 02:40:25;;;;;;;11.95;5.05;;;;;;;;;;5049633;28;20342;-71
2022/09/05 02:43:00;;;;;;;7.72;4.60;;;;;;;;;;5052529;28;20876;-71
2022/09/05 02:45:45;;;;;;;7.50;5.00;;;;;;;;;;5054018;28;20063;-71
2022/09/05 02:48:16;;;;;;;7.70;4.70;;;;;;;;;;5046775;28;20187;-71
2022/09/05 02:51:01;;;;;;;8.38;5.15;;;;;;;;;;5043930;28;20057;-71
2022/09/05 02:53:28;;;;;;;8.63;4.70;;;;;;;;;;5040067;28;20512;-71
2022/09/05 02:56:05;;;;;;;9.23;4.80;;;;;;;;;;5045862;28;20469;-71
2022/09/05 02:58:37;;;;;;;9.25;4.28;;;;;;;;;;5045561;28;20488;-71
2022/09/05 03:01:09;;;;;;;6.93;5.03;;;;;;;;;;5044114;28;20046;-71
2022/09/05 03:03:41;;;;;;;6.45;4.78;;;;;;;;;;5047056;28;20034;-70
2022/09/05 03:06:15;;;;;;;7.63;4.80;;;;;;;;;;5049772;28;20045;-71
2022/09/05 03:09:00;;;;;;;8.05;5.35;;;;;;;;;;5045802;28;20043;-71
2022/09/05 03:11:32;;;;;;;9.05;5.65;;;;;;;;;;5037804;28;20067;-71
2022/09/05 03:14:08;;;;;;;11.00;5.32;;;;;;;;;;5040153;28;20095;-71
2022/09/05 03:16:38;;;;;;;12.82;5.28;;;;;;;;;;5035498;28;20041;-71
2022/09/05 03:19:13;;;;;;;7.00;4.93;;;;;;;;;;5037232;28;20156;-71
2022/09/05 03:21:58;;;;;;;11.00;4.85;;;;;;;;;;5035476;28;20045;-71
2022/09/05 03:24:24;;;;;;;8.35;4.90;;;;;;;;;;5045065;28;20055;-71
2022/09/05 03:27:14;;;;;;;8.07;5.30;;;;;;;;;;5041462;28;20775;-71
2022/09/05 03:29:41;;;;;;;8.57;4.85;;;;;;;;;;5034650;28;20044;-71
2022/09/05 03:32:23;;;;;;;10.43;5.47;;;;;;;;;;5036038;28;20052;-71
2022/09/05 03:34:49;;;;;;;7.82;5.22;;;;;;;;;;5074433;28;20063;-70
2022/09/05 03:37:25;;;;;;;11.18;5.15;;;;;;;;;;5043718;28;20053;-71
2022/09/05 03:40:00;;;;;;;8.40;5.57;;;;;;;;;;5041457;28;20060;-71
2022/09/05 03:42:33;;;;;;;10.90;5.70;;;;;;;;;;5039584;28;20049;-71
2022/09/05 03:45:10;;;;;;;10.55;5.43;;;;;;;;;;5044030;28;20050;-71
2022/09/05 03:47:58;;;;;;;9.50;5.38;;;;;;;;;;5047693;28;20074;-71
2022/09/05 03:50:33;;;;;;;8.13;5.45;;;;;;;;;;5044591;28;20050;-71
2022/09/05 03:53:10;;;;;;;7.68;5.80;;;;;;;;;;5039010;28;20049;-71
2022/09/05 03:55:36;;;;;;;8.50;6.03;;;;;;;;;;5037010;28;20048;-71
2022/09/05 03:58:05;;;;;;;9.20;5.28;;;;;;;;;;5038274;28;20040;-71
2022/09/05 04:00:33;;;;;;;9.38;6.03;;;;;;;;;;5041501;28;20037;-71
2022/09/05 04:03:09;;;;;;;10.00;5.70;;;;;;;;;;5038718;28;20068;-71
2022/09/05 04:05:38;;;;;;;7.35;5.63;;;;;;;;;;5043112;28;20124;-70
2022/09/05 04:08:05;;;;;;;9.45;5.75;;;;;;;;;;5041499;28;20045;-71
2022/09/05 04:10:41;;;;;;;11.20;5.97;;;;;;;;;;5030506;28;20049;-71
2022/09/05 04:13:13;;;;;;;10.57;5.35;;;;;;;;;;5034753;28;20378;-71
2022/09/05 04:15:43;;;;;;;8.65;5.78;;;;;;;;;;5041540;28;20048;-71
2022/09/05 04:18:12;;;;;;;9.35;5.93;;;;;;;;;;5038960;28;20159;-71
2022/09/05 04:20:44;;;;;;;8.13;5.95;;;;;;;;;;5044837;28;20045;-71
2022/09/05 04:23:24;;;;;;;8.52;5.60;;;;;;;;;;5034367;28;20057;-71
2022/09/05 04:26:09;;;;;;;9.57;5.65;;;;;;;;;;5040315;28;20051;-71
2022/09/05 04:28:41;;;;;;;9.07;5.40;;;;;;;;;;5036628;28;20420;-71
2022/09/05 04:31:16;;;;;;;13.35;6.28;;;;;;;;;;5040775;28;20051;-71
2022/09/05 04:33:52;;;;;;;9.80;6.07;;;;;;;;;;5044883;28;20070;-71
2022/09/05 04:36:23;;;;;;;9.27;5.50;;;;;;;;;;5037023;28;20050;-71
2022/09/05 04:39:07;;;;;;;8.77;6.22;;;;;;;;;;5038288;28;20041;-70
2022/09/05 04:41:33;;;;;;;7.50;6.05;;;;;;;;;;5037994;28;20059;-71
2022/09/05 04:44:04;;;;;;;10.48;6.20;;;;;;;;;;5046319;28;20044;-71
2022/09/05 04:46:35;;;;;;;10.27;6.70;;;;;;;;;;5045369;28;20044;-71
2022/09/05 04:49:23;;;;;;;11.90;6.68;;;;;;;;;;5049726;28;20086;-71
2022/09/05 04:52:02;;;;;;;10.07;5.90;;;;;;;;;;5043904;28;20044;-71
2022/09/05 04:54:36;;;;;;;12.63;7.28;;;;;;;;;;5039257;28;20045;-71
2022/09/05 04:57:10;;;;;;;12.40;6.18;;;;;;;;;;5045254;28;20044;-71
2022/09/05 04:59:48;;;;;;;11.93;6.05;;;;;;;;;;5035945;28;20801;-71
2022/09/05 05:02:14;;;;;;;12.77;6.78;;;;;;;;;;5042986;28;20048;-71
2022/09/05 05:04:40;;;;;;;10.30;6.13;;;;;;;;;;5038618;28;20053;-68
2022/09/05 05:07:10;;;;;;;11.07;6.65;;;;;;;;;;5049702;28;20473;-68
2022/09/05 05:09:43;;;;;;;11.50;6.97;;;;;;;;;;5037937;28;20097;-68
2022/09/05 05:12:17;;;;;;;11.90;6.28;;;;;;;;;;5034488;28;20132;-68
2022/09/05 05:14:45;;;;;;;10.30;6.65;;;;;;;;;;5037593;28;20493;-68
2022/09/05 05:17:17;;;;;;;12.18;6.40;;;;;;;;;;5046644;28;20040;-68
2022/09/05 05:19:45;;;;;;;8.48;6.60;;;;;;;;;;5033931;28;20032;-68
2022/09/05 05:22:14;;;;;;;9.15;6.70;;;;;;;;;;5046850;28;21988;-68
2022/09/05 05:24:44;;;;;;;15.15;7.13;;;;;;;;;;5046483;28;21027;-68
2022/09/05 05:27:21;;;;;;;10.10;6.78;;;;;;;;;;5048756;28;20510;-68
2022/09/05 05:29:51;;;;;;;11.65;7.05;;;;;;;;;;5050887;28;20057;-68
2022/09/05 05:32:23;;;;;;;14.43;7.32;;;;;;;;;;5055011;28;20475;-68
2022/09/05 05:34:54;;;;;;;9.00;7.10;;;;;;;;;;5053311;28;20510;-67
2022/09/05 05:37:31;;;;;;;12.73;7.50;;;;;;;;;;5051098;28;20060;-68
2022/09/05 05:40:01;;;;;;;9.73;6.63;;;;;;;;;;5054779;28;20051;-68
2022/09/05 05:42:27;;;;;;;14.52;7.47;;;;;;;;;;5063604;28;20444;-67
2022/09/05 05:44:55;;;;;;;12.55;7.00;;;;;;;;;;5054273;28;20041;-68
2022/09/05 05:47:21;;;;;;;12.02;7.32;;;;;;;;;;5057424;28;20466;-68
2022/09/05 05:50:06;;;;;;;12.07;7.13;;;;;;;;;;5054257;28;20051;-68
2022/09/05 05:52:50;;;;;;;12.57;6.65;;;;;;;;;;5045981;28;20198;-68
2022/09/05 05:55:35;;;;;;;9.38;6.35;;;;;;;;;;5051050;28;20059;-69
2022/09/05 05:58:11;;;;;;;14.50;7.07;;;;;;;;;;5042167;28;20484;-68
2022/09/05 06:00:49;;;;;;;12.98;6.72;;;;;;;;;;5048439;28;20052;-84
2022/09/05 06:03:32;;;;;;;9.98;7.03;;;;;;;;;;5042926;28;20038;-67
2022/09/05 06:06:13;;;;;;;13.30;7.57;;;;;;;;;;5040345;28;20045;-67
2022/09/05 06:08:47;;;;;;;10.38;7.28;;;;;;;;;;5039036;28;20485;-67
2022/09/05 06:11:41;;;;;;;11.15;7.45;;;;;;;;;;5045608;28;20042;-67
2022/09/05 06:14:26;;;;;;;9.55;6.70;;;;;;;;;;5044713;28;20048;-67
2022/09/05 06:16:55;;;;;;;10.00;7.32;;;;;;;;;;5045437;28;20453;-67
2022/09/05 06:19:33;;;;;;;10.05;6.80;;;;;;;;;;5043074;28;20140;-67
2022/09/05 06:21:59;;;;;;;10.68;6.72;;;;;;;;;;5052757;28;20087;-67
2022/09/05 06:24:43;;;;;;;12.77;7.57;;;;;;;;;;5045785;28;20045;-67
2022/09/05 06:27:15;;;;;;;10.57;7.32;;;;;;;;;;5047989;28;20492;-67
2022/09/05 06:29:49;;;;;;;10.98;7.32;;;;;;;;;;5038777;28;20091;-67
2022/09/05 06:32:24;;;;;;;13.82;7.68;;;;;;;;;;5047801;28;20475;-67
2022/09/05 06:35:06;;;;;;;10.30;7.32;;;;;;;;;;5042991;28;20036;-67
2022/09/05 06:37:32;;;;;;;10.15;7.80;;;;;;;;;;5043963;28;20129;-67
2022/09/05 06:40:04;;;;;;;13.60;7.85;;;;;;;;;;5044983;28;20648;-67
2022/09/05 06:42:36;;;;;;;11.93;7.50;;;;;;;;;;5044801;28;20124;-67
2022/09/05 06:45:15;;;;;;;15.38;7.57;;;;;;;;;;5042965;28;20080;-67
2022/09/05 06:47:43;;;;;;;9.60;7.43;;;;;;;;;;5039975;28;20125;-68
2022/09/05 06:50:10;;;;;;;11.82;7.90;;;;;;;;;;5043343;28;20053;-67
2022/09/05 06:52:47;;;;;;;9.25;7.53;;;;;;;;;;5041404;28;20478;-68
2022/09/05 06:55:24;;;;;;;11.57;7.65;;;;;;;;;;5042807;28;20102;-68
2022/09/05 06:58:09;;;;;;;9.20;7.43;;;;;;;;;;5057559;28;20044;-68
2022/09/05 07:00:49;;;;;;;13.38;7.78;;;;;;;;;;5053145;28;21191;-68
2022/09/05 07:03:17;;;;;;;10.95;8.65;;;;;;;;;;5045485;28;20052;-68
2022/09/05 07:06:02;;;;;;;13.15;8.88;;;;;;;;;;5039177;28;20071;-69
2022/09/05 07:08:37;;;;;;;10.65;8.20;;;;;;;;;;5042370;28;20041;-68
2022/09/05 07:11:06;;;;;;;10.82;8.30;;;;;;;;;;5040542;28;20041;-68
2022/09/05 07:13:35;;;;;;;10.05;8.48;;;;;;;;;;5042340;28;20035;-68
2022/09/05 07:16:08;;;;;;;10.00;7.88;;;;;;;;;;5040983;28;20060;-67
2022/09/05 07:18:42;;;;;;;10.00;7.55;;;;;;;;;;5043521;28;20117;-67
2022/09/05 07:21:16;;;;;;;13.38;8.32;;;;;;;;;;5045638;28;20041;-68
2022/09/05 07:23:51;;;;;;;11.00;8.18;;;;;;;;;;5056281;28;20404;-68
2022/09/05 07:26:18;;;;;;;13.30;6.85;;;;;;;;;;5043645;28;20515;-68
2022/09/05 07:28:48;;;;;;;14.75;8.48;;;;;;;;;;5034613;28;20131;-68
2022/09/05 07:31:16;;;;;;;10.48;7.78;;;;;;;;;;5039944;28;20124;-67
2022/09/05 07:33:43;;;;;;;13.60;7.90;;;;;;;;;;5045565;28;20044;-68
2022/09/05 07:36:11;;;;;;;14.13;8.43;;;;;;;;;;5044442;28;20075;-67
2022/09/05 07:38:39;;;;;;;10.20;7.63;;;;;;;;;;5042511;28;20063;-68
2022/09/05 07:41:18;;;;;;;9.98;8.02;;;;;;;;;;5040611;28;20131;-68
2022/09/05 07:43:45;;;;;;;12.32;8.27;;;;;;;;;;5044040;28;20041;-68
2022/09/05 07:46:13;;;;;;;11.65;7.68;;;;;;;;;;5048962;28;21939;-67
2022/09/05 07:48:41;;;;;;;11.10;8.07;;;;;;;;;;5045562;28;20136;-68
2022/09/05 07:51:09;;;;;;;17.48;7.90;;;;;;;;;;5046275;28;20052;-68
2022/09/05 07:53:36;;;;;;;19.40;8.80;;;;;;;;;;5050975;28;20080;-68
2022/09/05 07:56:05;;;;;;;10.70;8.30;;;;;;;;;;5043541;28;20484;-68
2022/09/05 07:58:40;;;;;;;12.55;7.93;;;;;;;;;;5030504;28;20136;-68
2022/09/05 08:01:06;;;;;;;9.48;7.85;;;;;;;;;;5042779;28;20443;-68
2022/09/05 08:03:32;;;;;;;11.20;7.97;;;;;;;;;;5046213;28;20087;-68
2022/09/05 08:06:01;;;;;;;9.95;7.55;;;;;;;;;;5050928;28;20101;-68
2022/09/05 08:08:31;;;;;;;11.38;8.50;;;;;;;;;;5050394;28;20492;-68
2022/09/05 08:11:03;;;;;;;9.50;8.02;;;;;;;;;;5044270;28;20057;-68
2022/09/05 08:13:41;;;;;;;9.33;7.17;;;;;;;;;;5045132;28;20046;-68
2022/09/05 08:16:11;;;;;;;11.75;7.63;;;;;;;;;;5037442;28;20392;-67
2022/09/05 08:18:37;;;;;;;11.13;8.25;;;;;;;;;;5043708;28;20531;-67
2022/09/05 08:21:09;;;;;;;11.82;7.88;;;;;;;;;;5041766;28;21061;-67
2022/09/05 08:23:54;;;;;;;11.93;8.38;;;;;;;;;;5046896;28;20033;-68
2022/09/05 08:26:29;;;;;;;9.05;7.38;;;;;;;;;;5053709;28;20131;-67
2022/09/05 08:29:01;;;;;;;9.60;7.63;;;;;;;;;;5053155;28;20072;-68
2022/09/05 08:31:36;;;;;;;10.23;7.93;;;;;;;;;;5054224;28;20147;-68
2022/09/05 08:34:03;;;;;;;10.02;8.45;;;;;;;;;;5047896;28;20109;-68
2022/09/05 08:36:37;;;;;;;13.02;7.63;;;;;;;;;;5039077;28;20037;-67
2022/09/05 08:39:06;;;;;;;11.70;7.80;;;;;;;;;;5041800;28;20037;-67
2022/09/05 08:41:39;;;;;;;9.38;8.13;;;;;;;;;;5044090;28;20045;-67
2022/09/05 08:44:18;;;;;;;9.85;7.55;;;;;;;;;;5039825;28;20041;-67
2022/09/05 08:46:49;;;;;;;12.32;7.43;;;;;;;;;;5048492;28;20049;-68
2022/09/05 08:49:29;;;;;;;10.45;7.43;;;;;;;;;;5047758;28;20052;-68
2022/09/05 08:52:02;;;;;;;12.05;7.05;;;;;;;;;;5043353;28;20056;-68
2022/09/05 08:54:28;;;;;;;11.85;7.57;;;;;;;;;;5035532;28;20056;-68
2022/09/05 08:56:58;;;;;;;10.15;7.38;;;;;;;;;;5036574;28;20063;-68
2022/09/05 08:59:27;;;;;;;10.35;7.28;;;;;;;;;;5049136;28;20036;-67
2022/09/05 09:01:54;;;;;;;10.40;7.63;;;;;;;;;;5051612;28;20479;-69
2022/09/05 09:04:29;;;;;;;10.32;8.38;;;;;;;;;;5044858;28;20053;-68
2022/09/05 09:07:21;;;;;;;11.02;6.93;;;;;;;;;;5044138;28;20071;-68
2022/09/05 09:09:50;;;;;;;10.82;7.85;;;;;;;;;;5052053;28;20118;-68
2022/09/05 09:12:19;;;;;;;30.13;8.68;;;;;;;;;;5052157;28;20059;-68
2022/09/05 09:15:05;;;;;;;12.50;6.90;;;;;;;;;;5056617;28;20438;-68
2022/09/05 09:17:40;;;;;;;8.15;6.07;;;;;;;;;;5044919;28;20041;-68
2022/09/05 09:20:15;;;;;;;11.00;5.95;;;;;;;;;;5046534;28;20052;-69
2022/09/05 09:22:44;;;;;;;8.45;6.38;;;;;;;;;;5043190;28;20045;-68
2022/09/05 09:25:13;;;;;;;11.48;6.40;;;;;;;;;;5045767;28;20180;-68
2022/09/05 09:27:41;;;;;;;8.63;6.35;;;;;;;;;;5044137;28;20059;-68
2022/09/05 09:30:07;;;;;;;9.45;6.22;;;;;;;;;;5058114;28;21362;-68
2022/09/05 09:32:43;;;;;;;8.23;6.07;;;;;;;;;;5050145;28;20120;-68
2022/09/05 09:35:20;;;;;;;7.03;5.80;;;;;;;;;;5047200;28;20053;-68
2022/09/05 09:37:53;;;;;;;9.07;6.13;;;;;;;;;;5056364;28;20037;-68
2022/09/05 09:40:20;;;;;;;;;;;;;;;;;;5059091;28;20072;-68
2022/09/05 09:42:54;;;;;;;8.38;5.40;;;;;;;;;;5064031;28;19932;-68
2022/09/05 09:45:51;;;;;;;11.00;5.85;;;;;;;;;;5055853;28;20044;-68
2022/09/05 09:48:29;;;;;;;9.77;5.47;;;;;;;;;;5046149;28;20053;-69
2022/09/05 09:51:21;;;;;;;11.02;5.43;;;;;;;;;;5060853;28;20127;-69
2022/09/05 09:54:06;;;;;;;10.35;5.70;;;;;;;;;;5055686;28;20124;-68
2022/09/05 09:56:41;;;;;;;7.72;4.82;;;;;;;;;;5051024;28;20057;-69
2022/09/05 09:59:11;;;;;;;7.85;4.88;;;;;;;;;;5048630;28;20040;-69
2022/09/05 10:01:52;;;;;;;9.90;5.03;;;;;;;;;;5048225;28;20113;-69
2022/09/05 10:04:19;;;;;;;6.47;4.65;;;;;;;;;;5045802;28;20135;-69
2022/09/05 10:06:54;;;;;;;6.43;4.40;;;;;;;;;;5054344;28;20052;-69
2022/09/05 10:09:30;;;;;;;6.78;3.83;;;;;;;;;;5057024;28;20055;-69
2022/09/05 10:12:15;;;;;;;10.50;3.78;;;;;;;;;;5050731;28;20056;-69
2022/09/05 10:14:55;;;;;;;6.82;4.32;;;;;;;;;;5052080;28;20071;-69
2022/09/05 10:17:34;;;;;;;5.95;4.00;;;;;;;;;;5048320;28;20052;-69
2022/09/05 10:20:01;;;;;;;9.63;4.28;;;;;;;;;;5050325;28;20045;-69
2022/09/05 10:22:45;;;;;;;5.70;3.58;;;;;;;;;;5071524;28;20057;-69
2022/09/05 10:25:14;;;;;;;8.10;3.45;;;;;;;;;;5041914;28;20067;-69
2022/09/05 10:27:49;;;;;;;7.95;2.95;;;;;;;;;;5050501;28;20055;-69
2022/09/05 10:30:19;;;;;;;5.43;2.83;;;;;;;;;;5053353;28;20059;-69
2022/09/05 10:32:52;;;;;;;4.70;2.67;;;;;;;;;;5068271;28;20040;-69
2022/09/05 10:35:23;;;;;;;7.80;3.53;;;;;;;;;;5053808;28;20045;-69
2022/09/05 10:37:53;;;;;;;6.03;2.67;;;;;;;;;;5050628;28;20440;-69
2022/09/05 10:40:21;;;;;;;5.55;3.00;;;;;;;;;;5058283;28;20096;-69
2022/09/05 10:42:50;;;;;;;4.82;2.80;;;;;;;;;;5050008;28;20041;-69
2022/09/05 10:45:22;;;;;;;5.50;2.58;;;;;;;;;;5042837;28;20489;-69
2022/09/05 10:47:50;;;;;;;4.25;2.63;;;;;;;;;;5044520;28;20059;-69
2022/09/05 10:50:17;;;;;;;4.97;2.40;;;;;;;;;;5044268;28;20516;-69
2022/09/05 10:52:49;;;;;;;7.88;2.53;;;;;;;;;;5043712;28;20136;-69
2022/09/05 10:55:16;;;;;;;;;;;;;;;;;;5048848;28;20104;-69
2022/09/05 10:57:42;;;;;;;3.55;2.00;;;;;;;;;;5046012;28;20013;-69
2022/09/05 11:00:29;;;;;;;9.38;2.30;;;;;;;;;;5040949;28;20073;-69
2022/09/05 11:02:59;;;;;;;6.20;2.28;;;;;;;;;;5036613;28;20057;-69
2022/09/05 11:05:28;;;;;;;4.68;1.98;;;;;;;;;;5038742;28;20049;-69
2022/09/05 11:08:01;;;;;;;4.60;2.15;;;;;;;;;;5045194;28;20084;-69
2022/09/05 11:10:29;;;;;;;4.05;2.03;;;;;;;;;;5047774;28;20075;-69
2022/09/05 11:13:07;;;;;;;4.78;1.90;;;;;;;;;;5043872;28;20874;-70
2022/09/05 11:15:43;;;;;;;3.28;1.70;;;;;;;;;;5050822;28;20351;-69
2022/09/05 11:18:14;;;;;;;4.97;1.85;;;;;;;;;;5058216;28;20040;-70
2022/09/05 11:20:47;;;;;;;3.53;1.80;;;;;;;;;;5057193;28;20040;-69
2022/09/05 11:23:24;;;;;;;15.35;1.90;;;;;;;;;;5057970;28;20040;-69
2022/09/05 11:25:54;;;;;;;4.30;1.38;;;;;;;;;;5058527;28;20036;-69
2022/09/05 11:28:25;;;;;;;4.82;1.90;;;;;;;;;;5058999;28;20099;-69
2022/09/05 11:30:54;;;;;;;3.57;1.90;;;;;;;;;;5058261;28;20102;-69
2022/09/05 11:33:32;;;;;;;3.30;1.40;;;;;;;;;;5057655;28;20361;-69
2022/09/05 11:35:58;;;;;;;4.85;1.60;;;;;;;;;;5057246;28;20039;-69
2022/09/05 11:38:43;;;;;;;4.40;1.80;;;;;;;;;;5055067;28;20044;-69
2022/09/05 11:41:26;;;;;;;4.35;1.60;;;;;;;;;;5058468;28;20415;-69
2022/09/05 11:44:11;;;;;;;9.63;1.80;;;;;;;;;;5057271;28;20044;-69
2022/09/05 11:46:44;;;;;;;7.40;1.90;;;;;;;;;;5049409;28;20056;-69
2022/09/05 11:49:30;;;;;;;4.00;1.70;;;;;;;;;;5051884;28;21577;-69
2022/09/05 11:51:56;;;;;;;5.00;1.70;;;;;;;;;;5052256;28;20040;-69
2022/09/05 11:54:31;;;;;;;4.93;1.50;;;;;;;;;;5051964;28;20131;-70
2022/09/05 11:56:58;;;;;;;4.13;1.55;;;;;;;;;;5048442;28;20442;-69
2022/09/05 11:59:50;;;;;;;5.47;1.92;;;;;;;;;;5041702;28;20056;-69
2022/09/05 12:02:37;;;;;;;4.10;1.40;;;;;;;;;;5039793;28;20092;-69
2022/09/05 12:05:17;;;;;;;7.18;1.88;;;;;;;;;;5040151;28;20373;-69
2022/09/05 12:07:48;;;;;;;5.18;1.50;;;;;;;;;;5039838;28;20045;-69
2022/09/05 12:10:21;;;;;;;3.20;1.40;;;;;;;;;;5052686;28;20604;-69
2022/09/05 12:12:54;;;;;;;3.65;1.60;;;;;;;;;;5045507;28;20520;-69
2022/09/05 12:15:21;;;;;;;3.15;1.60;;;;;;;;;;5053731;28;20052;-70
2022/09/05 12:18:02;;;;;;;6.10;1.70;;;;;;;;;;5057728;28;20029;-69
2022/09/05 12:20:51;;;;;;;2.67;1.50;;;;;;;;;;5051949;28;20056;-69
2022/09/05 12:23:29;;;;;;;3.15;1.55;;;;;;;;;;5058287;28;20519;-69
2022/09/05 12:26:01;;;;;;;7.15;2.15;;;;;;;;;;5051638;28;20041;-69
2022/09/05 12:28:32;;;;;;;4.45;1.50;;;;;;;;;;5046248;28;20084;-68
2022/09/05 12:31:22;;;;;;;3.58;1.40;;;;;;;;;;5051291;28;21604;-67
2022/09/05 12:33:50;;;;;;;4.00;1.63;;;;;;;;;;5041943;28;20055;-68
2022/09/05 12:36:19;;;;;;;7.18;1.83;;;;;;;;;;5042367;28;20106;-68
2022/09/05 12:39:03;;;;;;;4.18;1.30;;;;;;;;;;5042103;28;20052;-67
2022/09/05 12:41:38;;;;;;;5.00;1.50;;;;;;;;;;5036369;28;20072;-67
2022/09/05 12:44:19;;;;;;;3.28;1.50;;;;;;;;;;5038683;28;20510;-70
2022/09/05 12:46:52;;;;;;;3.65;1.60;;;;;;;;;;5049052;28;20124;-67
2022/09/05 12:49:24;;;;;;;5.55;1.70;;;;;;;;;;5049840;28;20028;-68
2022/09/05 12:51:57;;;;;;;2.92;1.27;;;;;;;;;;5043658;28;20088;-67
2022/09/05 12:54:26;;;;;;;3.60;1.42;;;;;;;;;;5043791;28;20088;-67
2022/09/05 12:56:56;;;;;;;3.75;1.70;;;;;;;;;;5044763;28;20081;-67
2022/09/05 12:59:24;;;;;;;4.30;1.38;;;;;;;;;;5041061;28;20465;-69
2022/09/05 13:02:02;;;;;;;4.68;1.70;;;;;;;;;;5045341;28;20087;-66
2022/09/05 13:04:31;;;;;;;4.63;1.35;;;;;;;;;;5047213;28;20059;-66
2022/09/05 13:06:59;;;;;;;5.05;1.50;;;;;;;;;;5046073;28;20481;-67
2022/09/05 13:09:34;;;;;;;2.75;1.27;;;;;;;;;;5040982;28;20144;-66
2022/09/05 13:12:12;;;;;;;4.50;1.20;;;;;;;;;;5042571;28;20064;-66
2022/09/05 13:14:51;;;;;;;3.70;1.52;;;;;;;;;;5044311;28;20194;-66
2022/09/05 13:17:21;;;;;;;3.20;1.30;;;;;;;;;;5040123;28;20509;-66
2022/09/05 13:19:52;;;;;;;4.38;1.70;;;;;;;;;;5040671;28;20369;-66
2022/09/05 13:22:20;;;;;;;3.65;1.20;;;;;;;;;;5039747;28;20048;-66
2022/09/05 13:24:50;;;;;;;3.67;1.50;;;;;;;;;;5038598;28;20045;-66
2022/09/05 13:27:22;;;;;;;2.95;1.48;;;;;;;;;;5045012;28;20048;-66
2022/09/05 13:29:57;;;;;;;5.10;1.65;;;;;;;;;;5054079;28;20059;-66
2022/09/05 13:32:33;;;;;;;2.95;1.38;;;;;;;;;;5050406;28;20128;-66
2022/09/05 13:35:05;;;;;;;2.80;1.60;;;;;;;;;;5041594;28;20105;-66
2022/09/05 13:37:43;;;;;;;5.10;2.00;;;;;;;;;;5045807;28;20053;-66
2022/09/05 13:40:14;;;;;;;4.57;1.90;;;;;;;;;;5053656;28;20047;-66
2022/09/05 13:42:44;;;;;;;3.40;1.40;;;;;;;;;;5057079;28;20130;-66
2022/09/05 13:45:17;;;;;;;3.33;1.45;;;;;;;;;;5055626;28;20168;-66
2022/09/05 13:47:43;;;;;;;3.40;1.50;;;;;;;;;;5060972;28;20105;-66
2022/09/05 13:50:21;;;;;;;4.75;1.60;;;;;;;;;;5050819;28;20052;-66
2022/09/05 13:52:51;;;;;;;4.57;1.67;;;;;;;;;;5036909;28;20049;-65
2022/09/05 13:55:20;;;;;;;2.72;1.67;;;;;;;;;;5039003;28;20103;-66
2022/09/05 13:57:57;;;;;;;4.20;1.60;;;;;;;;;;5052167;28;20470;-66
2022/09/05 14:00:26;;;;;;;3.85;1.67;;;;;;;;;;5047284;28;20067;-66
2022/09/05 14:03:15;;;;;;;3.65;1.88;;;;;;;;;;5047643;28;20028;-67
2022/09/05 14:05:41;;;;;;;5.35;1.88;;;;;;;;;;5049881;28;20456;-66
2022/09/05 14:08:16;;;;;;;3.80;1.40;;;;;;;;;;5041345;28;20534;-69
2022/09/05 14:11:00;;;;;;;2.70;1.33;;;;;;;;;;5048214;28;20382;-68
2022/09/05 14:13:32;;;;;;;3.78;1.80;;;;;;;;;;5044644;28;20045;-69
2022/09/05 14:15:59;;;;;;;4.85;1.75;;;;;;;;;;5059831;28;20122;-69
2022/09/05 14:21:14;;;;;;;4.05;1.30;;;;;;;;;;5050529;28;20950;-69
2022/09/05 14:21:20;;;;;;;3.60;1.13;;;;;;;;;;5046017;28;20059;-68
2022/09/05 14:23:53;;;;;;;3.90;1.27;;;;;;;;;;5050534;28;20048;-68
2022/09/05 14:26:23;;;;;;;3.38;1.40;;;;;;;;;;5040758;28;20053;-69
2022/09/05 14:28:56;;;;;;;2.85;1.27;;;;;;;;;;5043052;28;20049;-68
2022/09/05 14:31:28;;;;;;;3.13;1.27;;;;;;;;;;5039904;28;20044;-68
2022/09/05 14:34:18;;;;;;;3.10;1.50;;;;;;;;;;5040915;28;20132;-69
2022/09/05 14:36:53;;;;;;;6.03;1.40;;;;;;;;;;5048102;28;20306;-68
2022/09/05 14:39:25;;;;;;;3.17;1.50;;;;;;;;;;5047752;28;20048;-69
2022/09/05 14:42:01;;;;;;;3.05;1.17;;;;;;;;;;5055512;28;20091;-68
2022/09/05 14:44:37;;;;;;;3.67;1.50;;;;;;;;;;5049007;28;20484;-69
2022/09/05 14:47:12;;;;;;;5.20;1.73;;;;;;;;;;5051372;28;20047;-68
2022/09/05 14:49:47;;;;;;;5.05;1.60;;;;;;;;;;5050729;28;20094;-68
2022/09/05 14:52:17;;;;;;;2.92;1.38;;;;;;;;;;5048670;28;20064;-69
2022/09/05 14:54:43;;;;;;;3.50;1.30;;;;;;;;;;5049745;28;20056;-68
2022/09/05 14:57:15;;;;;;;5.05;1.42;;;;;;;;;;5055058;28;20037;-68
2022/09/05 14:59:42;;;;;;;4.85;1.85;;;;;;;;;;5052457;28;20044;-68
2022/09/05 15:02:12;;;;;;;4.68;1.42;;;;;;;;;;5050163;28;20457;-76
2022/09/05 15:04:54;;;;;;;4.68;1.55;;;;;;;;;;5049309;28;20044;-69
2022/09/05 15:07:26;;;;;;;9.45;1.75;;;;;;;;;;5045986;28;20136;-68
2022/09/05 15:10:11;;;;;;;3.13;1.55;;;;;;;;;;5044412;28;20098;-68
2022/09/05 15:12:45;;;;;;;4.57;1.30;;;;;;;;;;5042456;28;20087;-68
2022/09/05 15:15:16;;;;;;;2.60;1.38;;;;;;;;;;5046265;28;20061;-68
2022/09/05 15:17:46;;;;;;;3.92;1.52;;;;;;;;;;5043214;28;20094;-68
2022/09/05 15:20:25;;;;;;;4.65;1.58;;;;;;;;;;5046318;28;20092;-68
2022/09/05 15:22:52;;;;;;;4.15;1.55;;;;;;;;;;5048337;28;20037;-68
2022/09/05 15:25:20;;;;;;;10.27;2.17;;;;;;;;;;5047265;28;20049;-68